Terminal Aerodrome Forecast
Issued by NWS Cleveland, OH

Home | Current Version | Previous Version | Text Only | Print | Product List | Glossary Off
Versions: 1 2 3 4 5 6 7 8 9 10 11 12 13 14 15 16 17 18

494
FTUS41 KCLE 172343
TAFMFD
TAF
KMFD 172343Z 1800/1824 18005KT 6SM -SN OVC050
     FM180100 21005KT 4SM -SN OVC015
     FM180200 24006KT 4SM -SN BR OVC007
     FM180600 26009KT P6SM OVC007
     FM181500 17008KT P6SM SKC=

USA.gov is the U.S. government's official web portal to all federal, state and local government web resources and services.